Nora, Minnesota
Current Conditions -  °F | °C
As of 4:15 PM on Thursday 23 Oct 2014 (Local Time) from KFSE Reporting Station
Clear Clear  
Wind Chill: 68°   Ceiling: Unl
Heat Index: 68°   Visibility: 10mi
Dew Point: 37°   Wind: 14mph
Humidity: 33%   Direction: 200°SSW
Pressure: 29.86"   Gusts: 18mph
Location:  47.3892°N, 95.4294°W
Report Text: KFSE 232115Z AUTO 20012G16KT 10SM CLR 20/03 A2986 RMK AO2
Loading
Personal Weather Stations






























Interactive Weather Map
Tropical Storm Tracking
New forecast layout! Learn more

10-Day Weather Forecast

Advertisements
Track Severe Weather on mobile